Time;durP1;ratioP1;P1;durP2;ratioP2;P2;SDS_P1;SDS_P2;PMS_P1;PMS_P2;Temp;Humidity;BMP_temperature;BMP_pressure;BME280_temperature;BME280_humidity;BME280_pressure;Samples;Min_cycle;Max_cycle;Signal;HPM_P1;HPM_P2
2022/07/10 00:00:31;;;;;;;4.50;0.75;;;;;;;;;;5052307;28;20400;-58
2022/07/10 00:02:57;;;;;;;3.70;1.00;;;;;;;;;;5036536;28;20033;-59
2022/07/10 00:05:24;;;;;;;4.70;1.00;;;;;;;;;;5050110;28;20041;-58
2022/07/10 00:07:50;;;;;;;5.90;1.05;;;;;;;;;;5033467;28;20029;-58
2022/07/10 00:10:17;;;;;;;5.97;0.90;;;;;;;;;;5031861;28;20033;-58
2022/07/10 00:12:44;;;;;;;2.78;1.30;;;;;;;;;;5043668;28;20037;-58
2022/07/10 00:15:10;;;;;;;3.97;1.52;;;;;;;;;;5031020;28;20044;-58
2022/07/10 00:17:38;;;;;;;5.00;1.08;;;;;;;;;;5033307;28;20087;-58
2022/07/10 00:20:04;;;;;;;8.70;1.02;;;;;;;;;;5023682;28;20030;-57
2022/07/10 00:22:30;;;;;;;4.57;1.15;;;;;;;;;;5032514;28;20034;-58
2022/07/10 00:24:57;;;;;;;4.35;0.82;;;;;;;;;;5034160;28;20091;-56
2022/07/10 00:27:23;;;;;;;9.93;2.45;;;;;;;;;;5016956;28;20041;-57
2022/07/10 00:29:49;;;;;;;4.82;1.30;;;;;;;;;;5029620;28;20115;-57
2022/07/10 00:32:15;;;;;;;12.45;1.63;;;;;;;;;;5032533;28;20037;-57
2022/07/10 00:34:41;;;;;;;5.68;1.13;;;;;;;;;;5029883;28;20823;-58
2022/07/10 00:37:07;;;;;;;7.47;1.38;;;;;;;;;;5025172;28;20032;-58
2022/07/10 00:39:34;;;;;;;7.43;1.48;;;;;;;;;;5040939;28;20033;-57
2022/07/10 00:42:10;;;;;;;5.88;1.00;;;;;;;;;;5036190;28;20431;-56
2022/07/10 00:44:36;;;;;;;4.97;1.08;;;;;;;;;;5031122;28;20105;-57
2022/07/10 00:47:03;;;;;;;5.50;1.27;;;;;;;;;;5031792;28;20256;-57
2022/07/10 00:49:29;;;;;;;6.32;1.10;;;;;;;;;;5026563;28;20104;-57
2022/07/10 00:51:55;;;;;;;10.95;1.38;;;;;;;;;;5032339;28;20088;-57
2022/07/10 00:54:21;;;;;;;5.07;0.93;;;;;;;;;;5033647;28;20624;-58
2022/07/10 00:56:48;;;;;;;4.72;1.17;;;;;;;;;;5031531;28;20437;-57
2022/07/10 00:59:14;;;;;;;9.07;1.17;;;;;;;;;;5033320;28;20022;-57
2022/07/10 01:01:40;;;;;;;3.92;1.23;;;;;;;;;;5035122;28;20448;-57
2022/07/10 01:04:06;;;;;;;4.15;1.10;;;;;;;;;;5030532;28;20172;-56
2022/07/10 01:06:32;;;;;;;5.45;1.00;;;;;;;;;;5038461;28;20385;-58
2022/07/10 01:08:58;;;;;;;6.30;1.13;;;;;;;;;;5032896;28;20033;-57
2022/07/10 01:11:24;;;;;;;7.05;0.90;;;;;;;;;;5026925;28;20036;-58
2022/07/10 01:13:50;;;;;;;3.70;0.93;;;;;;;;;;5036843;28;20104;-57
2022/07/10 01:16:17;;;;;;;7.57;1.20;;;;;;;;;;5017104;28;20022;-57
2022/07/10 01:18:43;;;;;;;9.50;0.90;;;;;;;;;;5023024;28;20121;-57
2022/07/10 01:21:28;;;;;;;5.18;0.98;;;;;;;;;;5033291;28;20025;-57
2022/07/10 01:23:55;;;;;;;7.47;1.30;;;;;;;;;;5037829;28;20025;-57
2022/07/10 01:26:23;;;;;;;6.20;1.48;;;;;;;;;;5038234;28;20037;-57
2022/07/10 01:28:49;;;;;;;9.98;1.17;;;;;;;;;;5030211;28;20508;-57
2022/07/10 01:31:15;;;;;;;4.97;1.17;;;;;;;;;;5045206;28;20029;-58
2022/07/10 01:33:42;;;;;;;7.40;1.08;;;;;;;;;;5032337;28;20112;-58
2022/07/10 01:36:08;;;;;;;8.40;1.23;;;;;;;;;;5036296;28;20405;-58
2022/07/10 01:38:34;;;;;;;4.15;1.17;;;;;;;;;;5032157;28;20025;-58
2022/07/10 01:41:00;;;;;;;4.07;1.30;;;;;;;;;;5043516;28;20026;-56
2022/07/10 01:43:26;;;;;;;6.63;1.13;;;;;;;;;;5031620;28;20539;-57
2022/07/10 01:45:52;;;;;;;4.22;0.90;;;;;;;;;;5039221;28;20373;-56
2022/07/10 01:48:18;;;;;;;5.15;1.42;;;;;;;;;;5027680;28;20389;-58
2022/07/10 01:50:44;;;;;;;3.20;0.80;;;;;;;;;;5034628;28;20086;-58
2022/07/10 01:53:10;;;;;;;7.18;1.42;;;;;;;;;;5037917;28;20033;-56
2022/07/10 01:55:37;;;;;;;5.32;1.27;;;;;;;;;;5036112;28;20051;-58
2022/07/10 01:58:03;;;;;;;5.00;0.93;;;;;;;;;;5032641;28;20034;-57
2022/07/10 02:00:29;;;;;;;3.70;1.20;;;;;;;;;;5022473;28;20128;-58
2022/07/10 02:05:39;;;;;;;4.28;0.90;;;;;;;;;;5038020;28;20032;-58
2022/07/10 02:08:06;;;;;;;4.57;1.10;;;;;;;;;;5037880;28;20465;-58
2022/07/10 02:10:32;;;;;;;3.72;0.77;;;;;;;;;;5037032;28;20488;-57
2022/07/10 02:12:58;;;;;;;4.35;0.80;;;;;;;;;;5033585;28;20033;-57
2022/07/10 02:15:24;;;;;;;3.25;0.63;;;;;;;;;;5030386;28;20047;-58
2022/07/10 02:17:50;;;;;;;5.00;0.82;;;;;;;;;;5031101;28;20460;-58
2022/07/10 02:20:16;;;;;;;3.60;0.80;;;;;;;;;;5036510;28;20028;-58
2022/07/10 02:22:42;;;;;;;3.47;0.80;;;;;;;;;;5034606;28;20029;-57
2022/07/10 02:25:08;;;;;;;5.68;0.82;;;;;;;;;;5033997;28;20384;-57
2022/07/10 02:27:34;;;;;;;4.05;0.75;;;;;;;;;;5030760;28;20103;-58
2022/07/10 02:30:00;;;;;;;2.92;0.65;;;;;;;;;;5021150;28;20033;-57
2022/07/10 02:32:26;;;;;;;3.38;0.68;;;;;;;;;;5022916;28;20084;-58
2022/07/10 02:34:52;;;;;;;8.68;1.13;;;;;;;;;;5022309;28;20034;-58
2022/07/10 02:37:19;;;;;;;2.38;0.73;;;;;;;;;;5037191;28;20466;-57
2022/07/10 02:39:45;;;;;;;4.28;0.70;;;;;;;;;;5034625;28;20022;-57
2022/07/10 02:42:11;;;;;;;5.20;1.17;;;;;;;;;;5039967;28;20026;-57
2022/07/10 02:44:37;;;;;;;4.47;0.95;;;;;;;;;;5035196;28;20017;-59
2022/07/10 02:47:03;;;;;;;4.55;0.93;;;;;;;;;;5037361;28;20512;-57
2022/07/10 02:49:29;;;;;;;4.70;0.85;;;;;;;;;;5026362;28;20026;-58
2022/07/10 02:51:55;;;;;;;6.30;0.70;;;;;;;;;;5019202;28;20030;-56
2022/07/10 02:54:21;;;;;;;3.17;0.70;;;;;;;;;;5030616;28;20052;-57
2022/07/10 02:56:47;;;;;;;1.65;0.52;;;;;;;;;;5031085;28;20037;-57
2022/07/10 02:59:13;;;;;;;2.88;0.75;;;;;;;;;;5045227;28;20024;-58
2022/07/10 03:01:39;;;;;;;6.05;1.13;;;;;;;;;;5034057;28;20434;-57
2022/07/10 03:04:05;;;;;;;3.50;0.60;;;;;;;;;;5031225;28;20547;-55
2022/07/10 03:06:31;;;;;;;2.00;0.70;;;;;;;;;;5033852;28;20037;-57
2022/07/10 03:08:57;;;;;;;2.83;0.80;;;;;;;;;;5034268;28;20045;-58
2022/07/10 03:11:23;;;;;;;3.78;0.80;;;;;;;;;;5033555;28;20481;-58
2022/07/10 03:13:49;;;;;;;6.03;1.02;;;;;;;;;;5031607;28;20046;-58
2022/07/10 03:16:15;;;;;;;2.97;0.77;;;;;;;;;;5029755;28;20034;-58
2022/07/10 03:18:41;;;;;;;3.60;1.13;;;;;;;;;;5032796;28;20030;-58
2022/07/10 03:21:07;;;;;;;2.55;0.60;;;;;;;;;;5032142;28;20029;-57
2022/07/10 03:23:32;;;;;;;3.65;0.70;;;;;;;;;;5023043;28;20036;-58
2022/07/10 03:25:58;;;;;;;5.25;1.55;;;;;;;;;;5031878;28;20037;-58
2022/07/10 03:28:24;;;;;;;4.68;0.82;;;;;;;;;;5031003;28;20105;-57
2022/07/10 03:30:51;;;;;;;7.85;1.00;;;;;;;;;;5027226;28;20378;-57
2022/07/10 03:33:17;;;;;;;6.18;0.82;;;;;;;;;;5028163;28;20057;-56
2022/07/10 03:35:43;;;;;;;4.53;1.20;;;;;;;;;;5030367;28;20485;-58
2022/07/10 03:38:09;;;;;;;1.63;0.50;;;;;;;;;;5022774;28;20028;-59
2022/07/10 03:40:35;;;;;;;2.83;0.70;;;;;;;;;;5028723;28;20033;-58
2022/07/10 03:43:01;;;;;;;2.85;0.80;;;;;;;;;;5032359;28;20060;-57
2022/07/10 03:45:27;;;;;;;4.78;1.05;;;;;;;;;;5032429;28;20025;-58
2022/07/10 03:47:53;;;;;;;2.40;0.90;;;;;;;;;;5021797;28;20044;-57
2022/07/10 03:50:19;;;;;;;5.50;0.88;;;;;;;;;;5044039;28;20041;-57
2022/07/10 03:52:46;;;;;;;2.80;0.73;;;;;;;;;;5038076;28;20496;-58
2022/07/10 03:55:12;;;;;;;3.22;0.85;;;;;;;;;;5028838;28;20220;-58
2022/07/10 03:57:53;;;;;;;2.90;0.60;;;;;;;;;;5030929;28;20112;-57
2022/07/10 04:00:19;;;;;;;4.47;1.25;;;;;;;;;;5035427;28;20021;-58
2022/07/10 04:02:45;;;;;;;4.55;1.13;;;;;;;;;;5033210;28;20424;-57
2022/07/10 04:05:11;;;;;;;2.90;0.70;;;;;;;;;;5035163;28;20029;-57
2022/07/10 04:07:37;;;;;;;3.20;0.93;;;;;;;;;;5040544;28;20037;-56
2022/07/10 04:10:04;;;;;;;4.13;0.98;;;;;;;;;;5033470;28;20484;-57
2022/07/10 04:12:29;;;;;;;6.93;1.23;;;;;;;;;;5048985;28;20432;-56
2022/07/10 04:14:56;;;;;;;4.75;1.05;;;;;;;;;;5030688;28;20044;-56
2022/07/10 04:17:22;;;;;;;3.95;0.80;;;;;;;;;;5030621;28;20025;-57
2022/07/10 04:19:48;;;;;;;4.25;0.75;;;;;;;;;;5044284;28;20025;-58
2022/07/10 04:22:14;;;;;;;5.72;0.98;;;;;;;;;;5038627;28;20485;-58
2022/07/10 04:24:40;;;;;;;5.32;0.90;;;;;;;;;;5033215;28;20436;-58
2022/07/10 04:27:06;;;;;;;4.82;1.02;;;;;;;;;;5034219;28;20056;-56
2022/07/10 04:29:32;;;;;;;4.38;0.77;;;;;;;;;;5039639;28;20021;-58
2022/07/10 04:31:58;;;;;;;5.40;1.05;;;;;;;;;;5044130;28;20037;-58
2022/07/10 04:34:24;;;;;;;4.30;0.82;;;;;;;;;;5032259;28;20048;-57
2022/07/10 04:36:51;;;;;;;3.80;0.93;;;;;;;;;;5036255;28;20034;-57
2022/07/10 04:39:16;;;;;;;3.65;0.90;;;;;;;;;;5032409;28;20025;-55
2022/07/10 04:41:42;;;;;;;5.75;1.20;;;;;;;;;;5027983;28;20037;-57
2022/07/10 04:44:08;;;;;;;6.63;1.00;;;;;;;;;;5042311;28;20029;-58
2022/07/10 04:46:34;;;;;;;5.60;1.00;;;;;;;;;;5026991;28;20025;-58
2022/07/10 04:49:00;;;;;;;4.40;0.98;;;;;;;;;;5026005;28;20034;-57
2022/07/10 04:51:26;;;;;;;3.75;1.08;;;;;;;;;;5039486;28;20633;-58
2022/07/10 04:53:52;;;;;;;5.47;1.08;;;;;;;;;;5037093;28;20393;-58
2022/07/10 04:56:18;;;;;;;5.00;0.70;;;;;;;;;;5038554;28;20052;-58
2022/07/10 04:58:45;;;;;;;8.32;1.30;;;;;;;;;;5027325;28;20100;-57
2022/07/10 05:01:11;;;;;;;5.57;0.85;;;;;;;;;;5038125;28;20092;-58
2022/07/10 05:03:37;;;;;;;6.55;1.15;;;;;;;;;;5034048;28;20037;-58
2022/07/10 05:06:03;;;;;;;4.38;1.10;;;;;;;;;;5032136;28;20091;-58
2022/07/10 05:08:29;;;;;;;4.50;1.10;;;;;;;;;;5034224;28;20107;-58
2022/07/10 05:10:55;;;;;;;12.98;1.65;;;;;;;;;;5042323;28;20103;-57
2022/07/10 05:13:21;;;;;;;6.57;1.40;;;;;;;;;;5035684;28;20113;-57
2022/07/10 05:15:47;;;;;;;4.75;0.95;;;;;;;;;;5031183;28;20038;-57
2022/07/10 05:18:13;;;;;;;4.82;1.02;;;;;;;;;;5032392;28;20025;-56
2022/07/10 05:20:42;;;;;;;5.55;0.73;;;;;;;;;;5037088;28;20037;-58
2022/07/10 05:23:08;;;;;;;7.43;1.00;;;;;;;;;;5036620;28;20032;-57
2022/07/10 05:25:34;;;;;;;2.88;1.00;;;;;;;;;;5048510;28;20029;-57
2022/07/10 05:28:00;;;;;;;7.07;1.17;;;;;;;;;;5023219;28;20036;-57
2022/07/10 05:30:26;;;;;;;5.03;0.95;;;;;;;;;;5041238;28;20400;-57
2022/07/10 05:32:55;;;;;;;5.03;1.17;;;;;;;;;;5027305;28;20026;-58
2022/07/10 05:35:21;;;;;;;5.85;0.80;;;;;;;;;;5032559;28;20120;-56
2022/07/10 05:37:47;;;;;;;7.30;1.27;;;;;;;;;;5036372;28;20029;-58
2022/07/10 05:40:13;;;;;;;5.45;1.08;;;;;;;;;;5034397;28;20029;-55
2022/07/10 05:42:39;;;;;;;6.40;0.98;;;;;;;;;;5028470;28;20053;-58
2022/07/10 05:45:06;;;;;;;3.53;1.00;;;;;;;;;;5029719;28;20013;-56
2022/07/10 05:47:33;;;;;;;5.82;1.40;;;;;;;;;;5030095;28;20031;-56
2022/07/10 05:49:59;;;;;;;4.57;1.27;;;;;;;;;;5033307;28;20105;-56
2022/07/10 05:52:25;;;;;;;5.18;0.80;;;;;;;;;;5032122;28;20100;-58
2022/07/10 05:54:51;;;;;;;10.15;1.35;;;;;;;;;;5043767;28;20029;-57
2022/07/10 05:57:17;;;;;;;6.13;1.50;;;;;;;;;;5041841;28;20032;-58
2022/07/10 05:59:44;;;;;;;7.18;1.52;;;;;;;;;;5037910;28;20040;-56
2022/07/10 06:02:10;;;;;;;5.80;1.58;;;;;;;;;;5034221;28;20117;-58
2022/07/10 06:04:36;;;;;;;10.45;1.40;;;;;;;;;;5035661;28;20028;-58
2022/07/10 06:07:02;;;;;;;6.70;1.10;;;;;;;;;;5040747;28;20500;-58
2022/07/10 06:09:29;;;;;;;4.97;1.17;;;;;;;;;;5023888;28;20079;-58
2022/07/10 06:11:55;;;;;;;7.63;1.20;;;;;;;;;;5035325;28;20546;-58
2022/07/10 06:14:21;;;;;;;8.50;1.20;;;;;;;;;;5038370;28;20025;-57
2022/07/10 06:16:47;;;;;;;6.45;1.23;;;;;;;;;;5026807;28;20112;-57
2022/07/10 06:19:13;;;;;;;4.95;1.15;;;;;;;;;;5017353;28;20029;-58
2022/07/10 06:21:39;;;;;;;6.10;1.40;;;;;;;;;;5043557;28;20017;-58
2022/07/10 06:24:05;;;;;;;6.20;0.80;;;;;;;;;;5037466;28;20025;-57
2022/07/10 06:26:31;;;;;;;9.43;1.73;;;;;;;;;;5028536;28;20045;-59
2022/07/10 06:28:57;;;;;;;10.73;1.55;;;;;;;;;;5039925;28;20025;-57
2022/07/10 06:31:23;;;;;;;6.30;1.70;;;;;;;;;;5045132;28;20059;-58
2022/07/10 06:33:49;;;;;;;7.28;1.20;;;;;;;;;;5023033;28;20040;-57
2022/07/10 06:36:15;;;;;;;6.07;1.55;;;;;;;;;;5033646;28;20551;-57
2022/07/10 06:38:41;;;;;;;7.22;1.20;;;;;;;;;;5028267;28;20036;-58
2022/07/10 06:41:07;;;;;;;4.10;1.00;;;;;;;;;;5033981;28;20057;-57
2022/07/10 06:43:33;;;;;;;4.20;1.05;;;;;;;;;;5028041;28;20095;-58
2022/07/10 06:45:59;;;;;;;9.00;1.73;;;;;;;;;;5033587;28;20044;-58
2022/07/10 06:48:27;;;;;;;6.68;1.40;;;;;;;;;;5021043;28;20038;-57
2022/07/10 06:50:53;;;;;;;5.97;1.15;;;;;;;;;;5032351;28;20069;-57
2022/07/10 06:53:23;;;;;;;4.80;1.00;;;;;;;;;;5028607;28;20059;-58
2022/07/10 06:55:50;;;;;;;9.20;1.27;;;;;;;;;;5019208;28;20123;-58
2022/07/10 06:58:16;;;;;;;11.07;1.63;;;;;;;;;;5030528;28;20028;-57
2022/07/10 07:00:42;;;;;;;9.50;1.73;;;;;;;;;;5033564;28;20029;-58
2022/07/10 07:03:08;;;;;;;4.82;1.40;;;;;;;;;;5030778;28;20095;-58
2022/07/10 07:05:34;;;;;;;5.22;1.17;;;;;;;;;;5029205;28;20029;-57
2022/07/10 07:08:00;;;;;;;8.90;1.40;;;;;;;;;;5023993;28;20111;-54
2022/07/10 07:10:26;;;;;;;9.32;1.63;;;;;;;;;;5022438;28;20106;-58
2022/07/10 07:12:52;;;;;;;5.78;1.92;;;;;;;;;;5032048;28;20497;-57
2022/07/10 07:15:20;;;;;;;5.25;1.20;;;;;;;;;;5042559;28;20033;-57
2022/07/10 07:18:32;;;;;;;7.10;1.30;;;;;;;;;;5032308;28;20022;-57
2022/07/10 07:23:16;;;;;;;7.10;1.40;;;;;;;;;;5022409;28;20044;-57
2022/07/10 07:25:46;;;;;;;6.65;1.50;;;;;;;;;;5034000;28;20408;-55
2022/07/10 07:28:12;;;;;;;9.13;1.48;;;;;;;;;;5038505;28;20029;-57
2022/07/10 07:30:38;;;;;;;9.20;1.23;;;;;;;;;;5021799;28;20036;-57
2022/07/10 07:33:04;;;;;;;6.13;1.20;;;;;;;;;;5034451;28;20113;-57
2022/07/10 07:35:30;;;;;;;7.60;1.08;;;;;;;;;;5034408;28;20025;-58
2022/07/10 07:37:56;;;;;;;5.50;1.20;;;;;;;;;;5027637;28;20033;-57
2022/07/10 07:40:23;;;;;;;8.68;1.20;;;;;;;;;;5031024;28;20732;-58
2022/07/10 07:42:49;;;;;;;9.82;1.10;;;;;;;;;;5036419;28;20523;-58
2022/07/10 07:45:15;;;;;;;8.13;1.58;;;;;;;;;;5022012;28;20036;-58
2022/07/10 07:47:45;;;;;;;4.88;1.40;;;;;;;;;;5029475;28;20026;-57
2022/07/10 07:50:11;;;;;;;10.60;1.65;;;;;;;;;;5030833;28;20057;-56
2022/07/10 07:52:37;;;;;;;5.93;1.40;;;;;;;;;;5033953;28;20030;-57
2022/07/10 07:55:03;;;;;;;8.52;1.90;;;;;;;;;;5024744;28;20049;-56
2022/07/10 07:57:29;;;;;;;4.88;1.42;;;;;;;;;;5038403;28;20520;-58
2022/07/10 07:59:55;;;;;;;9.13;1.67;;;;;;;;;;5030998;28;20037;-58
2022/07/10 08:02:22;;;;;;;9.60;1.40;;;;;;;;;;5029683;28;20022;-58
2022/07/10 08:04:48;;;;;;;4.50;1.20;;;;;;;;;;5040048;28;20021;-57
2022/07/10 08:07:14;;;;;;;11.15;2.08;;;;;;;;;;5032782;28;20044;-58
2022/07/10 08:09:40;;;;;;;4.55;1.65;;;;;;;;;;5032560;28;20026;-56
2022/07/10 08:12:06;;;;;;;10.20;1.40;;;;;;;;;;5021755;28;20408;-58
2022/07/10 08:14:32;;;;;;;6.57;1.60;;;;;;;;;;5035730;28;20464;-58
2022/07/10 08:16:58;;;;;;;5.90;1.20;;;;;;;;;;5028362;28;20034;-58
2022/07/10 08:19:24;;;;;;;7.30;1.25;;;;;;;;;;5031464;28;20076;-56
2022/07/10 08:21:50;;;;;;;8.63;1.20;;;;;;;;;;5027974;28;20405;-58
2022/07/10 08:24:16;;;;;;;6.25;1.25;;;;;;;;;;5029841;28;20054;-57
2022/07/10 08:26:42;;;;;;;5.07;1.48;;;;;;;;;;5028034;28;20028;-57
2022/07/10 08:29:08;;;;;;;5.80;1.23;;;;;;;;;;5028117;28;20025;-58
2022/07/10 08:31:34;;;;;;;6.05;1.98;;;;;;;;;;5033111;28;20037;-57
2022/07/10 08:34:00;;;;;;;5.60;1.30;;;;;;;;;;5028948;28;20028;-56
2022/07/10 08:36:26;;;;;;;9.85;1.33;;;;;;;;;;5033005;28;20037;-57
2022/07/10 08:38:54;;;;;;;6.78;1.33;;;;;;;;;;5032655;28;20108;-59
2022/07/10 08:41:23;;;;;;;8.73;1.33;;;;;;;;;;5029612;28;20485;-58
2022/07/10 08:43:50;;;;;;;8.70;1.55;;;;;;;;;;5027126;28;20049;-58
2022/07/10 08:46:16;;;;;;;6.20;1.33;;;;;;;;;;5032695;28;20029;-59
2022/07/10 08:48:42;;;;;;;10.20;2.08;;;;;;;;;;5029568;28;20501;-57
2022/07/10 08:51:14;;;;;;;10.70;1.55;;;;;;;;;;5028500;28;20116;-56
2022/07/10 08:53:41;;;;;;;9.57;1.73;;;;;;;;;;5036281;28;20025;-57
2022/07/10 08:56:07;;;;;;;9.80;1.20;;;;;;;;;;5032267;28;20069;-58
2022/07/10 08:58:33;;;;;;;7.13;1.23;;;;;;;;;;5028904;28;20127;-58
2022/07/10 09:00:59;;;;;;;8.88;1.38;;;;;;;;;;5034802;28;20030;-58
2022/07/10 09:03:25;;;;;;;5.95;1.45;;;;;;;;;;5026462;28;20084;-56
2022/07/10 09:05:52;;;;;;;8.02;1.73;;;;;;;;;;5033404;28;20068;-57
2022/07/10 09:08:27;;;;;;;5.55;1.13;;;;;;;;;;5031632;28;20029;-57
2022/07/10 09:10:53;;;;;;;2.95;0.80;;;;;;;;;;5026741;28;20456;-58
2022/07/10 09:13:19;;;;;;;7.05;1.45;;;;;;;;;;5030064;28;20022;-58
2022/07/10 09:15:49;;;;;;;10.80;1.92;;;;;;;;;;5031827;28;20389;-56
2022/07/10 09:18:18;;;;;;;7.35;1.50;;;;;;;;;;5021379;28;20560;-58
2022/07/10 09:20:46;;;;;;;6.90;1.50;;;;;;;;;;5032412;28;20485;-58
2022/07/10 09:23:22;;;;;;;11.70;1.63;;;;;;;;;;5031297;28;20033;-58
2022/07/10 09:25:49;;;;;;;10.48;1.65;;;;;;;;;;5031035;28;20056;-59
2022/07/10 09:28:22;;;;;;;7.10;1.38;;;;;;;;;;5029393;28;20036;-57
2022/07/10 09:30:49;;;;;;;5.90;1.57;;;;;;;;;;5031277;28;20033;-57
2022/07/10 09:33:19;;;;;;;5.45;1.70;;;;;;;;;;5029723;28;21048;-57
2022/07/10 09:36:04;;;;;;;7.35;1.55;;;;;;;;;;5032007;28;20047;-58
2022/07/10 09:38:46;;;;;;;6.57;1.40;;;;;;;;;;5031181;28;20048;-57
2022/07/10 09:41:14;;;;;;;6.20;1.35;;;;;;;;;;5024167;28;20392;-58
2022/07/10 09:43:47;;;;;;;8.27;1.65;;;;;;;;;;5035104;28;20017;-57
2022/07/10 09:46:13;;;;;;;9.52;1.30;;;;;;;;;;5033389;28;20117;-58
2022/07/10 09:48:40;;;;;;;10.15;1.95;;;;;;;;;;5034796;28;20029;-58
2022/07/10 09:51:10;;;;;;;9.10;1.55;;;;;;;;;;5035952;28;20721;-58
2022/07/10 09:53:40;;;;;;;4.78;1.17;;;;;;;;;;5031926;28;20392;-57
2022/07/10 09:56:10;;;;;;;5.28;1.48;;;;;;;;;;5034310;28;20073;-58
2022/07/10 09:58:36;;;;;;;9.48;2.20;;;;;;;;;;5031704;28;20025;-55
2022/07/10 10:01:06;;;;;;;11.93;2.13;;;;;;;;;;5040711;28;20058;-56
2022/07/10 10:03:36;;;;;;;10.30;1.77;;;;;;;;;;5029117;28;20036;-56
2022/07/10 10:06:17;;;;;;;11.02;1.95;;;;;;;;;;5019925;28;20053;-55
2022/07/10 10:08:56;;;;;;;5.57;1.30;;;;;;;;;;5029255;28;20033;-56
2022/07/10 10:11:24;;;;;;;15.82;1.67;;;;;;;;;;5031254;28;20084;-57
2022/07/10 10:13:50;;;;;;;6.35;1.42;;;;;;;;;;5030659;28;20493;-55
2022/07/10 10:16:16;;;;;;;6.68;1.73;;;;;;;;;;5037489;28;20033;-54
2022/07/10 10:21:30;;;;;;;5.13;1.40;;;;;;;;;;5024332;28;20572;-56
2022/07/10 10:23:56;;;;;;;7.25;1.38;;;;;;;;;;5022776;28;20104;-55
2022/07/10 10:26:24;;;;;;;9.63;1.52;;;;;;;;;;5023493;28;20029;-56
2022/07/10 10:28:52;;;;;;;9.63;1.52;;;;;;;;;;5026904;28;20120;-55
2022/07/10 10:31:18;;;;;;;7.40;1.65;;;;;;;;;;5025937;28;20037;-57
2022/07/10 10:33:45;;;;;;;6.38;1.20;;;;;;;;;;5026890;28;20029;-56
2022/07/10 10:36:13;;;;;;;10.77;2.15;;;;;;;;;;5022586;28;20139;-54
2022/07/10 10:38:48;;;;;;;5.88;1.42;;;;;;;;;;5032760;28;20117;-56
2022/07/10 10:41:23;;;;;;;6.25;1.58;;;;;;;;;;5026575;28;20040;-55
2022/07/10 10:44:17;;;;;;;7.32;1.33;;;;;;;;;;5018298;28;20104;-55
2022/07/10 10:47:00;;;;;;;8.48;1.73;;;;;;;;;;5028177;28;20045;-56
2022/07/10 10:49:26;;;;;;;5.32;1.85;;;;;;;;;;5025927;28;20079;-56
2022/07/10 10:51:58;;;;;;;9.40;1.30;;;;;;;;;;5039956;28;20112;-56
2022/07/10 10:54:24;;;;;;;7.55;1.67;;;;;;;;;;5028698;28;20372;-50
2022/07/10 10:57:11;;;;;;;5.20;1.20;;;;;;;;;;5032955;28;20053;-51
2022/07/10 10:59:50;;;;;;;7.30;1.63;;;;;;;;;;5033394;28;20030;-54
2022/07/10 11:02:26;;;;;;;13.75;1.70;;;;;;;;;;5030789;28;20030;-55
2022/07/10 11:04:52;;;;;;;5.63;1.48;;;;;;;;;;5037172;28;20380;-55
2022/07/10 11:07:37;;;;;;;8.90;1.17;;;;;;;;;;5031473;28;20133;-54
2022/07/10 11:10:21;;;;;;;9.63;1.58;;;;;;;;;;5035096;28;20267;-54
2022/07/10 11:12:58;;;;;;;6.40;1.38;;;;;;;;;;5041507;28;20106;-55
2022/07/10 11:15:24;;;;;;;6.95;1.77;;;;;;;;;;5029832;28;20073;-55
2022/07/10 11:17:51;;;;;;;8.50;1.30;;;;;;;;;;5030046;28;20108;-52
2022/07/10 11:20:17;;;;;;;10.48;2.03;;;;;;;;;;5030081;28;20090;-53
2022/07/10 11:22:44;;;;;;;6.80;1.35;;;;;;;;;;5031264;28;20033;-54
2022/07/10 11:25:35;;;;;;;7.05;1.58;;;;;;;;;;5030819;28;20048;-51
2022/07/10 11:28:11;;;;;;;10.98;1.70;;;;;;;;;;5030201;28;20053;-56
2022/07/10 11:31:07;;;;;;;9.70;1.40;;;;;;;;;;5023324;28;20072;-55
2022/07/10 11:33:43;;;;;;;7.68;1.52;;;;;;;;;;5030156;28;20053;-53
2022/07/10 11:36:13;;;;;;;7.03;1.55;;;;;;;;;;5030425;28;20358;-53
2022/07/10 11:38:39;;;;;;;7.10;1.00;;;;;;;;;;5030660;28;20112;-52
2022/07/10 11:41:04;;;;;;;4.90;1.40;;;;;;;;;;5030964;28;20052;-54
2022/07/10 11:43:30;;;;;;;6.25;1.27;;;;;;;;;;5024241;28;20022;-53
2022/07/10 11:46:00;;;;;;;6.88;1.58;;;;;;;;;;5026485;28;20036;-52
2022/07/10 11:48:26;;;;;;;11.40;1.05;;;;;;;;;;5022779;28;20053;-51
2022/07/10 11:50:53;;;;;;;8.63;1.23;;;;;;;;;;5022725;28;20045;-55
2022/07/10 11:53:23;;;;;;;7.10;0.90;;;;;;;;;;5024287;28;20040;-55
2022/07/10 11:55:50;;;;;;;7.70;1.35;;;;;;;;;;5029115;28;20087;-55
2022/07/10 11:58:17;;;;;;;7.30;1.10;;;;;;;;;;5033248;28;20025;-55
2022/07/10 12:00:43;;;;;;;11.15;1.75;;;;;;;;;;5040370;28;20018;-55
2022/07/10 12:03:19;;;;;;;8.95;1.23;;;;;;;;;;5019815;28;20029;-54
2022/07/10 12:05:46;;;;;;;6.03;1.40;;;;;;;;;;5038946;28;20064;-54
2022/07/10 12:08:15;;;;;;;6.75;1.20;;;;;;;;;;5029703;28;20532;-55
2022/07/10 12:10:42;;;;;;;6.10;1.02;;;;;;;;;;5030576;28;20021;-53
2022/07/10 12:13:15;;;;;;;7.88;1.27;;;;;;;;;;5031096;28;20726;-55
2022/07/10 12:15:42;;;;;;;6.95;1.23;;;;;;;;;;5034812;28;20029;-52
2022/07/10 12:18:09;;;;;;;8.38;1.38;;;;;;;;;;5033412;28;20057;-54
2022/07/10 12:20:36;;;;;;;8.45;1.33;;;;;;;;;;5032966;28;20032;-53
2022/07/10 12:23:04;;;;;;;5.70;1.08;;;;;;;;;;5032926;28;20493;-55
2022/07/10 12:25:30;;;;;;;6.00;1.17;;;;;;;;;;5037859;28;20092;-54
2022/07/10 12:27:59;;;;;;;5.60;1.10;;;;;;;;;;5030069;28;20076;-53
2022/07/10 12:30:36;;;;;;;8.07;1.38;;;;;;;;;;5033888;28;20378;-53
2022/07/10 12:33:09;;;;;;;9.95;1.45;;;;;;;;;;5022006;28;20067;-50
2022/07/10 12:35:55;;;;;;;6.70;1.23;;;;;;;;;;5015400;28;20046;-52
2022/07/10 12:38:22;;;;;;;6.55;1.05;;;;;;;;;;5029178;28;20114;-54
2022/07/10 12:40:48;;;;;;;4.47;1.10;;;;;;;;;;5030037;28;20076;-49
2022/07/10 12:43:29;;;;;;;7.63;1.25;;;;;;;;;;5026635;28;20314;-50
2022/07/10 12:46:12;;;;;;;2.35;0.90;;;;;;;;;;5024960;28;20029;-53
2022/07/10 12:48:40;;;;;;;6.18;1.23;;;;;;;;;;5034974;28;20040;-53
2022/07/10 12:51:29;;;;;;;4.75;1.17;;;;;;;;;;5034579;28;20041;-53
2022/07/10 12:53:55;;;;;;;5.65;1.45;;;;;;;;;;5032744;28;20472;-54
2022/07/10 12:56:33;;;;;;;5.80;1.20;;;;;;;;;;5032531;28;20045;-54
2022/07/10 12:59:00;;;;;;;5.20;1.33;;;;;;;;;;5032595;28;20028;-51
2022/07/10 13:01:30;;;;;;;4.88;1.13;;;;;;;;;;5029545;28;20049;-53
2022/07/10 13:04:00;;;;;;;9.82;1.15;;;;;;;;;;5031413;28;20036;-56
2022/07/10 13:06:27;;;;;;;5.43;0.90;;;;;;;;;;5030653;28;20168;-54
2022/07/10 13:08:53;;;;;;;7.03;0.90;;;;;;;;;;5029144;28;20057;-53
2022/07/10 13:11:19;;;;;;;5.03;0.98;;;;;;;;;;5025787;28;20520;-53
2022/07/10 13:13:45;;;;;;;8.52;1.35;;;;;;;;;;5031739;28;20025;-54
2022/07/10 13:16:11;;;;;;;5.55;1.00;;;;;;;;;;5032594;28;20026;-54
2022/07/10 13:18:37;;;;;;;6.72;0.90;;;;;;;;;;5025433;28;20037;-52
2022/07/10 13:21:03;;;;;;;4.53;0.95;;;;;;;;;;5027495;28;20022;-55
2022/07/10 13:23:30;;;;;;;4.93;1.05;;;;;;;;;;5035658;28;20048;-55
2022/07/10 13:25:57;;;;;;;6.45;1.30;;;;;;;;;;5040482;28;20029;-55
2022/07/10 13:28:23;;;;;;;3.45;0.85;;;;;;;;;;5031542;28;20038;-54
2022/07/10 13:30:49;;;;;;;6.35;1.40;;;;;;;;;;5026852;28;20383;-54
2022/07/10 13:33:15;;;;;;;7.68;1.27;;;;;;;;;;5027543;28;20503;-55
2022/07/10 13:35:41;;;;;;;3.35;0.70;;;;;;;;;;5028470;28;20033;-54
2022/07/10 13:38:07;;;;;;;3.58;0.90;;;;;;;;;;5028030;28;20025;-55
2022/07/10 13:40:36;;;;;;;6.35;1.08;;;;;;;;;;5026882;28;20036;-55
2022/07/10 13:43:03;;;;;;;3.88;0.80;;;;;;;;;;5021647;28;20039;-54
2022/07/10 13:45:33;;;;;;;7.22;1.35;;;;;;;;;;5028178;28;20428;-55
2022/07/10 13:47:59;;;;;;;3.85;0.88;;;;;;;;;;5027445;28;20551;-55
2022/07/10 13:50:25;;;;;;;5.18;0.90;;;;;;;;;;5030271;28;20635;-55
2022/07/10 13:52:52;;;;;;;8.20;0.85;;;;;;;;;;5027621;28;20489;-54
2022/07/10 13:55:18;;;;;;;2.60;0.45;;;;;;;;;;5025471;28;20485;-55
2022/07/10 13:57:44;;;;;;;4.00;0.60;;;;;;;;;;5024145;28;20088;-55
2022/07/10 14:00:11;;;;;;;4.40;0.77;;;;;;;;;;5023163;28;20025;-53
2022/07/10 14:02:37;;;;;;;3.45;0.88;;;;;;;;;;5023226;28;20029;-53
2022/07/10 14:05:03;;;;;;;5.97;1.15;;;;;;;;;;5027591;28;20026;-53
2022/07/10 14:07:29;;;;;;;3.85;0.70;;;;;;;;;;5022623;28;20104;-51
2022/07/10 14:09:56;;;;;;;4.85;0.98;;;;;;;;;;5026851;28;20512;-53
2022/07/10 14:12:22;;;;;;;4.22;0.70;;;;;;;;;;5028003;28;20049;-54
2022/07/10 14:14:48;;;;;;;7.55;0.80;;;;;;;;;;5030701;28;20100;-54
2022/07/10 14:17:14;;;;;;;2.28;0.80;;;;;;;;;;5027845;28;20142;-54
2022/07/10 14:19:41;;;;;;;3.95;0.75;;;;;;;;;;5027194;28;20029;-54
2022/07/10 14:22:07;;;;;;;4.22;0.70;;;;;;;;;;5031078;28;20026;-54
2022/07/10 14:24:33;;;;;;;4.05;0.75;;;;;;;;;;5029987;28;20031;-56
2022/07/10 14:26:59;;;;;;;5.75;1.13;;;;;;;;;;5029308;28;20030;-55
2022/07/10 14:29:25;;;;;;;4.63;1.00;;;;;;;;;;5030121;28;20079;-55
2022/07/10 14:31:51;;;;;;;6.30;0.95;;;;;;;;;;5029118;28;20103;-54
2022/07/10 14:34:18;;;;;;;4.10;0.90;;;;;;;;;;5024976;28;20451;-54
2022/07/10 14:36:43;;;;;;;6.25;1.05;;;;;;;;;;5028234;28;20113;-54
2022/07/10 14:39:11;;;;;;;4.00;0.85;;;;;;;;;;5028370;28;20108;-54
2022/07/10 14:41:37;;;;;;;6.88;1.00;;;;;;;;;;5028940;28;20476;-54
2022/07/10 14:44:03;;;;;;;4.07;0.63;;;;;;;;;;5029754;28;20036;-52
2022/07/10 14:46:29;;;;;;;6.90;1.00;;;;;;;;;;5028732;28;20029;-54
2022/07/10 14:48:55;;;;;;;5.25;0.77;;;;;;;;;;5031617;28;20511;-53
2022/07/10 14:51:21;;;;;;;4.18;0.75;;;;;;;;;;5025831;28;20029;-52
2022/07/10 14:53:48;;;;;;;9.20;1.25;;;;;;;;;;5032885;28;20025;-53